Anastasia Island, Florida
Current Conditions -  °F | °C
As of 10:58 AM on Thursday 29 Jan 2015 (Local Time) from KSGJ Reporting Station
Clear Clear  
Wind Chill: 15°   Ceiling: Unl
Heat Index: 15°   Visibility: 10mi
Dew Point:   Wind: 8mph
Humidity: 67%   Direction: 10°N
Pressure: 30.36"   Gusts: NA
Location:  29.8475°N, 81.2787°W
Report Text: KSGJ 291558Z 01007KT 10SM CLR 15/09 A3036 RMK AO2 SLPNO T01500089
Loading
Personal Weather Stations






























Interactive Weather Map New forecast layout! Learn more

10-Day Weather Forecast

Advertisements
Track Severe Weather on mobile